Terminal Aerodrome Forecast
Issued by NWS

Home | Current Version | Previous Version | Text Only | Print | Product List | Glossary On
Versions: 1 2 3 4 5 6 7 8 9 10 11 12 13 14 15 16 17 18 19 20 21 22 23 24 25
000
FTUS41 KOKX 021132
TAFHPN
TAF
KHPN 021132Z 0212/0312 33005KT P6SM SCT070 BKN250
     FM021400 VRB04KT P6SM SCT070 BKN250
     FM021700 20006KT P6SM SCT050 BKN200
     FM022000 17006KT P6SM SCT050 BKN200
     FM030100 VRB03KT P6SM SCT070 BKN200
     FM031000 35005KT P6SM BKN250
      AMD NOT SKED=

USA.gov is the U.S. government's official web portal to all federal, state and local government web resources and services.